createdAt,value
2019-02-14T00:00:45.112Z,74.12
2019-02-14T00:03:16.729Z,74.26
2019-02-14T00:05:48.327Z,74.11
2019-02-14T00:08:19.949Z,73.91
2019-02-14T00:10:51.462Z,74.08
2019-02-14T00:13:23.036Z,74.16
2019-02-14T00:15:54.695Z,73.90
2019-02-14T00:18:26.232Z,73.82
2019-02-14T00:20:57.866Z,73.64
2019-02-14T00:23:29.814Z,73.58
2019-02-14T00:26:01.417Z,73.56
2019-02-14T00:28:33.036Z,73.65
2019-02-14T00:31:04.646Z,73.64
2019-02-14T00:33:36.196Z,73.19
2019-02-14T00:36:07.710Z,73.10
2019-02-14T00:38:39.808Z,73.35
2019-02-14T00:41:11.389Z,73.43
2019-02-14T00:43:42.912Z,73.47
2019-02-14T00:46:14.440Z,73.97
2019-02-14T00:48:45.977Z,73.74
2019-02-14T00:51:17.502Z,73.50
2019-02-14T00:53:49.112Z,73.70
2019-02-14T00:56:20.643Z,73.63
2019-02-14T00:58:52.318Z,73.24
2019-02-14T01:01:23.820Z,72.80
2019-02-14T01:03:55.349Z,73.47
2019-02-14T01:06:26.884Z,73.23
2019-02-14T01:08:58.427Z,73.09
2019-02-14T01:11:29.952Z,72.98
2019-02-14T01:14:01.539Z,72.92
2019-02-14T01:16:33.101Z,72.84
2019-02-14T01:19:04.678Z,73.47
2019-02-14T01:21:36.294Z,73.66
2019-02-14T01:24:07.906Z,72.88
2019-02-14T01:26:39.446Z,72.86
2019-02-14T01:29:11.061Z,72.27
2019-02-14T01:31:42.822Z,71.82
2019-02-14T01:34:14.364Z,71.53
2019-02-14T01:36:45.876Z,71.36
2019-02-14T01:39:17.394Z,71.09
2019-02-14T01:41:48.959Z,70.97
2019-02-14T01:44:21.637Z,72.16
2019-02-14T01:46:53.167Z,72.07
2019-02-14T01:49:24.763Z,71.68
2019-02-14T01:51:56.306Z,71.24
2019-02-14T01:54:27.847Z,70.71
2019-02-14T01:56:59.806Z,70.43
2019-02-14T01:59:31.333Z,70.50
2019-02-14T02:02:03.035Z,70.63
2019-02-14T02:04:34.768Z,71.01
2019-02-14T02:07:07.511Z,71.09
2019-02-14T02:09:39.053Z,71.57
2019-02-14T02:12:11.066Z,71.54
2019-02-14T02:14:42.658Z,71.67
2019-02-14T02:17:14.236Z,72.05
2019-02-14T02:19:45.823Z,71.97
2019-02-14T02:22:17.481Z,72.81
2019-02-14T02:24:49.088Z,72.27
2019-02-14T02:27:21.078Z,72.96
2019-02-14T02:29:52.681Z,73.50
2019-02-14T02:32:24.283Z,73.73
2019-02-14T02:34:55.878Z,72.73
2019-02-14T02:37:27.489Z,72.91
2019-02-14T02:39:59.020Z,73.64
2019-02-14T02:42:30.618Z,73.82
2019-02-14T02:45:02.180Z,73.82
2019-02-14T02:47:33.763Z,73.81
2019-02-14T02:50:07.689Z,74.16
2019-02-14T02:52:39.291Z,74.49
2019-02-14T02:55:11.654Z,74.20
2019-02-14T02:57:43.328Z,74.26
2019-02-14T03:00:17.600Z,74.42
2019-02-14T03:02:49.137Z,74.10
2019-02-14T03:05:20.733Z,73.75
2019-02-14T03:07:52.350Z,73.50
2019-02-14T03:10:23.887Z,72.81
2019-02-14T03:12:55.440Z,73.03
2019-02-14T03:15:26.967Z,73.05
2019-02-14T03:17:58.558Z,72.58
2019-02-14T03:20:47.724Z,73.08
2019-02-14T03:23:19.292Z,72.45
2019-02-14T03:25:50.897Z,71.63
2019-02-14T03:28:22.423Z,72.38
2019-02-14T03:30:53.953Z,73.06
2019-02-14T03:33:25.491Z,73.14
2019-02-14T03:35:57.180Z,73.60
2019-02-14T03:38:28.830Z,72.66
2019-02-14T03:41:00.692Z,73.13
2019-02-14T03:43:32.261Z,72.65
2019-02-14T03:46:03.857Z,72.68
2019-02-14T03:48:35.462Z,72.74
2019-02-14T03:51:07.006Z,72.81
2019-02-14T03:53:38.529Z,72.14
2019-02-14T03:56:10.040Z,71.43
2019-02-14T03:58:41.553Z,70.92
2019-02-14T04:01:13.169Z,70.51
2019-02-14T04:03:44.696Z,70.23
2019-02-14T04:06:16.211Z,70.40
2019-02-14T04:08:47.873Z,70.24
2019-02-14T04:11:19.516Z,70.50
2019-02-14T04:13:51.031Z,70.37
2019-02-14T04:16:22.647Z,70.41
2019-02-14T04:18:54.287Z,70.24
2019-02-14T04:21:25.841Z,70.58
2019-02-14T04:23:57.449Z,70.30
2019-02-14T04:26:28.996Z,70.14
2019-02-14T04:29:00.602Z,70.26
2019-02-14T04:31:32.157Z,70.20
2019-02-14T04:34:03.891Z,69.96
2019-02-14T04:36:36.279Z,69.70
2019-02-14T04:39:08.425Z,69.67
2019-02-14T04:41:40.037Z,70.38
2019-02-14T04:44:11.834Z,70.25
2019-02-14T04:46:43.502Z,70.18
2019-02-14T04:49:15.107Z,69.86
2019-02-14T04:51:46.641Z,69.93
2019-02-14T04:54:18.166Z,69.93
2019-02-14T04:56:50.140Z,69.83
2019-02-14T04:59:21.675Z,70.13
2019-02-14T05:01:53.196Z,70.42
2019-02-14T05:04:24.715Z,69.98
2019-02-14T05:06:56.234Z,69.64
2019-02-14T05:09:27.869Z,69.34
2019-02-14T05:12:00.119Z,69.36
2019-02-14T05:14:31.928Z,69.36
2019-02-14T05:17:03.467Z,69.25
2019-02-14T05:19:34.990Z,69.18
2019-02-14T05:22:06.622Z,69.38
2019-02-14T05:24:38.242Z,69.43
2019-02-14T05:27:10.423Z,69.58
2019-02-14T05:29:41.953Z,69.54
2019-02-14T05:32:14.550Z,69.52
2019-02-14T05:34:46.216Z,69.91
2019-02-14T05:37:17.818Z,69.93
2019-02-14T05:39:49.358Z,70.12
2019-02-14T05:42:21.467Z,70.48
2019-02-14T05:44:53.068Z,70.67
2019-02-14T05:47:24.601Z,71.03
2019-02-14T05:49:56.115Z,70.74
2019-02-14T05:52:27.776Z,71.04
2019-02-14T05:54:59.314Z,71.90
2019-02-14T05:57:30.855Z,72.13
2019-02-14T06:00:02.545Z,72.59
2019-02-14T06:02:34.188Z,72.23
2019-02-14T06:05:07.052Z,71.93
2019-02-14T06:07:38.595Z,71.78
2019-02-14T06:10:11.627Z,71.71
2019-02-14T06:12:44.107Z,72.27
2019-02-14T06:15:15.626Z,73.16
2019-02-14T06:17:47.221Z,72.79
2019-02-14T06:20:18.765Z,74.84
2019-02-14T06:22:50.368Z,74.85
2019-02-14T06:25:21.972Z,73.86
2019-02-14T06:27:53.481Z,73.21
2019-02-14T06:30:25.944Z,74.23
2019-02-14T06:32:57.538Z,75.34
2019-02-14T06:35:29.093Z,74.97
2019-02-14T06:38:00.694Z,74.32
2019-02-14T06:40:32.249Z,74.57
2019-02-14T06:43:04.271Z,74.44
2019-02-14T06:45:35.884Z,74.25
2019-02-14T06:48:07.582Z,73.83
2019-02-14T06:50:39.195Z,73.54
2019-02-14T06:53:10.779Z,73.69
2019-02-14T06:55:42.345Z,73.09
2019-02-14T06:58:13.856Z,72.92
2019-02-14T07:00:45.454Z,72.96
2019-02-14T07:03:16.993Z,72.89
2019-02-14T07:05:48.600Z,72.86
2019-02-14T07:08:20.115Z,74.54
2019-02-14T07:10:51.723Z,74.52
2019-02-14T07:13:23.730Z,73.62
2019-02-14T07:15:55.266Z,73.02
2019-02-14T07:18:26.916Z,72.61
2019-02-14T07:20:58.589Z,72.84
2019-02-14T07:23:30.298Z,73.17
2019-02-14T07:26:01.829Z,72.89
2019-02-14T07:28:34.457Z,72.82
2019-02-14T07:31:07.311Z,73.02
2019-02-14T07:33:38.868Z,73.08
2019-02-14T07:36:10.383Z,74.02
2019-02-14T07:38:42.092Z,74.89
2019-02-14T07:41:13.685Z,75.32
2019-02-14T07:43:45.244Z,75.71
2019-02-14T07:46:22.513Z,76.03
2019-02-14T07:48:50.080Z,76.47
2019-02-14T07:51:21.620Z,76.55
2019-02-14T07:53:53.151Z,76.43
2019-02-14T07:56:24.662Z,76.34
2019-02-14T07:58:56.179Z,76.01
2019-02-14T08:01:28.240Z,75.77
2019-02-14T08:03:59.959Z,74.53
2019-02-14T08:06:31.488Z,73.54
2019-02-14T08:09:03.125Z,73.22
2019-02-14T08:11:34.627Z,73.57
2019-02-14T08:14:06.206Z,73.49
2019-02-14T08:16:38.197Z,73.46
2019-02-14T08:19:09.898Z,73.30
2019-02-14T08:21:41.468Z,73.62
2019-02-14T08:24:13.041Z,73.37
2019-02-14T08:26:44.668Z,72.96
2019-02-14T08:29:16.799Z,72.39
2019-02-14T08:31:48.362Z,73.73
2019-02-14T08:34:19.900Z,74.77
2019-02-14T08:36:51.660Z,75.26
2019-02-14T08:39:23.189Z,75.50
2019-02-14T08:41:54.733Z,75.48
2019-02-14T08:44:26.984Z,75.17
2019-02-14T08:46:58.537Z,74.36
2019-02-14T08:49:30.112Z,73.86
2019-02-14T08:52:01.760Z,73.33
2019-02-14T08:54:33.442Z,73.50
2019-02-14T08:57:05.067Z,74.00
2019-02-14T08:59:36.671Z,73.33
2019-02-14T09:02:08.229Z,72.29
2019-02-14T09:04:39.806Z,71.82
2019-02-14T09:07:11.699Z,71.14
2019-02-14T09:09:43.507Z,70.76
2019-02-14T09:12:15.076Z,70.41
2019-02-14T09:14:46.612Z,70.22
2019-02-14T09:17:18.158Z,70.31
2019-02-14T09:19:50.664Z,70.96
2019-02-14T09:22:22.192Z,71.41
2019-02-14T09:24:54.671Z,72.61
2019-02-14T09:27:26.345Z,72.53
2019-02-14T09:29:57.972Z,71.81
2019-02-14T09:32:29.570Z,72.04
2019-02-14T09:35:01.113Z,72.62
2019-02-14T09:37:32.700Z,72.50
2019-02-14T09:40:06.520Z,73.21
2019-02-14T09:42:38.066Z,73.16
2019-02-14T09:45:14.955Z,74.08
2019-02-14T09:47:46.537Z,73.83
2019-02-14T09:50:18.111Z,73.74
2019-02-14T09:52:49.729Z,73.62
2019-02-14T09:55:21.250Z,74.22
2019-02-14T09:57:52.798Z,72.89
2019-02-14T10:00:24.441Z,73.44
2019-02-14T10:02:56.458Z,74.14
2019-02-14T10:05:28.180Z,74.13
2019-02-14T10:07:59.713Z,73.91
2019-02-14T10:10:31.304Z,73.44
2019-02-14T10:13:02.885Z,73.27
2019-02-14T10:15:34.424Z,73.92
2019-02-14T10:18:06.031Z,73.72
2019-02-14T10:20:37.634Z,73.79
2019-02-14T10:23:09.227Z,73.90
2019-02-14T10:25:40.895Z,73.56
2019-02-14T10:28:12.421Z,73.43
2019-02-14T10:30:43.942Z,73.36
2019-02-14T10:33:15.484Z,72.96
2019-02-14T10:35:47.341Z,73.06
2019-02-14T10:38:22.342Z,72.90
2019-02-14T10:40:52.247Z,72.25
2019-02-14T10:43:23.878Z,71.34
2019-02-14T10:45:55.524Z,71.51
2019-02-14T10:48:27.513Z,71.37
2019-02-14T10:50:59.053Z,70.91
2019-02-14T10:53:30.655Z,70.73
2019-02-14T10:56:02.425Z,70.58
2019-02-14T10:58:34.240Z,70.00
2019-02-14T11:01:05.852Z,69.51
2019-02-14T11:03:37.398Z,69.92
2019-02-14T11:06:08.995Z,69.47
2019-02-14T11:08:40.531Z,70.38
2019-02-14T11:11:12.063Z,70.34
2019-02-14T11:13:43.601Z,70.74
2019-02-14T11:16:15.132Z,70.34
2019-02-14T11:18:46.731Z,70.79
2019-02-14T11:21:18.316Z,70.75
2019-02-14T11:23:49.909Z,70.80
2019-02-14T11:26:21.463Z,71.32
2019-02-14T11:28:52.989Z,71.16
2019-02-14T11:31:24.512Z,70.72
2019-02-14T11:33:56.208Z,70.33
2019-02-14T11:36:27.761Z,70.47
2019-02-14T11:38:59.288Z,70.49
2019-02-14T11:41:30.819Z,70.55
2019-02-14T11:44:02.914Z,70.22
2019-02-14T11:46:35.884Z,69.88
2019-02-14T11:49:07.465Z,69.76
2019-02-14T11:51:39.068Z,68.76
2019-02-14T11:54:11.099Z,68.65
2019-02-14T11:56:42.698Z,68.61
2019-02-14T11:59:14.299Z,68.46
2019-02-14T12:01:45.808Z,68.19
2019-02-14T12:04:17.362Z,67.82
2019-02-14T12:06:48.941Z,67.51
2019-02-14T12:09:20.582Z,68.41
2019-02-14T12:11:52.122Z,71.13
2019-02-14T12:14:23.657Z,70.79
2019-02-14T12:16:55.249Z,69.88
2019-02-14T12:19:26.865Z,70.34
2019-02-14T12:21:58.498Z,70.10
2019-02-14T12:24:30.195Z,69.69
2019-02-14T12:27:01.875Z,68.63
2019-02-14T12:29:34.755Z,68.45
2019-02-14T12:32:06.318Z,69.09
2019-02-14T12:34:37.854Z,68.58
2019-02-14T12:37:09.425Z,68.95
2019-02-14T12:39:41.924Z,67.95
2019-02-14T12:42:13.533Z,67.15
2019-02-14T12:44:45.101Z,66.67
2019-02-14T12:47:16.708Z,66.98
2019-02-14T12:49:48.366Z,67.39
2019-02-14T12:52:21.686Z,67.22
2019-02-14T12:54:53.316Z,67.10
2019-02-14T12:57:24.882Z,66.57
2019-02-14T12:59:56.424Z,66.12
2019-02-14T13:02:28.107Z,65.68
2019-02-14T13:04:59.715Z,65.68
2019-02-14T13:07:31.266Z,65.21
2019-02-14T13:10:02.921Z,65.69
2019-02-14T13:12:34.569Z,65.55
2019-02-14T13:15:11.110Z,64.95
2019-02-14T13:17:42.739Z,65.49
2019-02-14T13:20:14.267Z,65.62
2019-02-14T13:22:46.249Z,65.14
2019-02-14T13:25:19.022Z,65.41
2019-02-14T13:27:51.122Z,66.11
2019-02-14T13:30:26.962Z,65.47
2019-02-14T13:32:58.548Z,65.43
2019-02-14T13:35:30.115Z,65.91
2019-02-14T13:38:01.666Z,66.19
2019-02-14T13:40:33.248Z,66.03
2019-02-14T13:43:04.837Z,66.08
2019-02-14T13:45:38.269Z,66.41
2019-02-14T13:48:09.784Z,66.99
2019-02-14T13:50:41.395Z,66.83
2019-02-14T13:53:12.952Z,66.52
2019-02-14T13:55:44.433Z,66.66
2019-02-14T13:58:16.021Z,66.40
2019-02-14T14:00:47.657Z,65.77
2019-02-14T14:03:19.198Z,65.66
2019-02-14T14:05:50.725Z,65.52
2019-02-14T14:08:22.306Z,64.42
2019-02-14T14:10:54.008Z,63.87
2019-02-14T14:13:25.520Z,63.17
2019-02-14T14:15:57.047Z,63.34
2019-02-14T14:18:28.640Z,63.29
2019-02-14T14:21:00.169Z,63.04
2019-02-14T14:23:31.796Z,62.23
2019-02-14T14:26:03.541Z,62.24
2019-02-14T14:28:35.083Z,62.36
2019-02-14T14:31:06.657Z,61.78
2019-02-14T14:33:38.246Z,61.08
2019-02-14T14:36:09.913Z,60.81
2019-02-14T14:38:41.686Z,61.12
2019-02-14T14:41:13.286Z,61.60
2019-02-14T14:43:46.455Z,61.54
2019-02-14T14:46:19.613Z,62.15
2019-02-14T14:48:51.274Z,62.30
2019-02-14T14:51:22.887Z,62.05
2019-02-14T14:53:55.474Z,61.49
2019-02-14T14:56:27.190Z,61.06
2019-02-14T14:58:58.807Z,60.94
2019-02-14T15:01:30.421Z,60.98
2019-02-14T15:04:02.113Z,61.09
2019-02-14T15:06:33.675Z,61.71
2019-02-14T15:09:07.043Z,61.79
2019-02-14T15:11:39.198Z,61.81
2019-02-14T15:14:11.149Z,62.58
2019-02-14T15:16:42.777Z,62.42
2019-02-14T15:19:14.530Z,62.38
2019-02-14T15:21:46.219Z,62.22
2019-02-14T15:24:17.981Z,62.30
2019-02-14T15:26:49.527Z,62.88
2019-02-14T15:29:21.354Z,63.02
2019-02-14T15:31:52.975Z,62.74
2019-02-14T15:34:24.659Z,62.65
2019-02-14T15:36:56.226Z,62.79
2019-02-14T15:39:27.823Z,63.10
2019-02-14T15:41:59.487Z,63.61
2019-02-14T15:44:31.195Z,63.58
2019-02-14T15:47:02.723Z,63.54
2019-02-14T15:49:36.405Z,63.18
2019-02-14T15:52:09.510Z,63.20
2019-02-14T15:54:41.201Z,63.90
2019-02-14T15:57:12.744Z,63.41
2019-02-14T15:59:45.417Z,63.52
2019-02-14T16:02:17.247Z,63.59
2019-02-14T16:04:50.813Z,63.91
2019-02-14T16:07:22.799Z,63.80
2019-02-14T16:09:55.413Z,63.56
2019-02-14T16:12:27.357Z,63.20
2019-02-14T16:15:02.032Z,63.11
2019-02-14T16:17:35.436Z,63.30
2019-02-14T16:20:09.878Z,63.21
2019-02-14T16:22:42.472Z,63.43
2019-02-14T16:25:14.824Z,63.52
2019-02-14T16:27:48.074Z,63.33
2019-02-14T16:30:19.615Z,63.31
2019-02-14T16:32:51.254Z,63.21
2019-02-14T16:35:22.814Z,63.35
2019-02-14T16:37:54.332Z,63.38
2019-02-14T16:40:28.146Z,63.20
2019-02-14T16:42:59.251Z,62.97
2019-02-14T16:45:30.765Z,62.79
2019-02-14T16:48:02.373Z,63.06
2019-02-14T16:50:33.929Z,62.98
2019-02-14T16:53:06.158Z,62.80
2019-02-14T16:55:37.653Z,62.65
2019-02-14T16:58:09.480Z,62.72
2019-02-14T17:00:41.017Z,62.59
2019-02-14T17:03:12.668Z,62.74
2019-02-14T17:05:44.206Z,63.26
2019-02-14T17:08:15.803Z,63.58
2019-02-14T17:10:47.337Z,63.28
2019-02-14T17:13:20.219Z,63.22
2019-02-14T17:15:51.759Z,63.15
2019-02-14T17:18:23.295Z,63.39
2019-02-14T17:20:54.848Z,63.17
2019-02-14T17:23:26.542Z,63.06
2019-02-14T17:25:58.168Z,63.07
2019-02-14T17:28:29.750Z,63.27
2019-02-14T17:31:01.360Z,62.95
2019-02-14T17:33:33.018Z,62.89
2019-02-14T17:36:05.033Z,62.94
2019-02-14T17:38:36.588Z,63.05
2019-02-14T17:41:08.108Z,63.15
2019-02-14T17:43:39.669Z,63.22
2019-02-14T17:46:11.219Z,63.69
2019-02-14T17:48:42.890Z,63.54
2019-02-14T17:51:16.067Z,63.20
2019-02-14T17:53:47.683Z,62.98
2019-02-14T17:56:19.343Z,62.75
2019-02-14T17:58:50.994Z,63.07
2019-02-14T18:01:22.776Z,64.28
2019-02-14T18:03:54.390Z,64.27
2019-02-14T18:06:26.006Z,63.95
2019-02-14T18:08:57.533Z,63.92
2019-02-14T18:11:29.129Z,64.35
2019-02-14T18:14:00.662Z,64.77
2019-02-14T18:16:32.259Z,65.76
2019-02-14T18:19:06.942Z,65.83
2019-02-14T18:21:38.491Z,66.23
2019-02-14T18:24:11.095Z,65.89
2019-02-14T18:26:42.652Z,66.05
2019-02-14T18:29:14.408Z,66.77
2019-02-14T18:31:46.060Z,66.48
2019-02-14T18:34:18.975Z,66.61
2019-02-14T18:36:50.592Z,65.81
2019-02-14T18:39:22.127Z,65.62
2019-02-14T18:41:53.722Z,65.53
2019-02-14T18:44:25.566Z,65.33
2019-02-14T18:46:58.324Z,64.71
2019-02-14T18:49:29.907Z,64.74
2019-02-14T18:52:01.450Z,64.98
2019-02-14T18:54:33.074Z,64.96
2019-02-14T18:57:04.883Z,64.80
2019-02-14T18:59:36.426Z,65.09
2019-02-14T19:02:07.947Z,64.94
2019-02-14T19:04:39.531Z,65.08
2019-02-14T19:07:11.150Z,65.18
2019-02-14T19:09:42.703Z,65.66
2019-02-14T19:12:14.204Z,66.28
2019-02-14T19:14:45.745Z,66.43
2019-02-14T19:17:17.784Z,66.15
2019-02-14T19:19:49.318Z,65.86
2019-02-14T19:22:20.921Z,66.05
2019-02-14T19:24:52.469Z,66.31
2019-02-14T19:27:24.032Z,66.37
2019-02-14T19:29:55.889Z,66.11
2019-02-14T19:32:27.430Z,66.06
2019-02-14T19:34:59.183Z,66.01
2019-02-14T19:37:30.835Z,65.98
2019-02-14T19:40:02.441Z,66.10
2019-02-14T19:42:34.036Z,66.43
2019-02-14T19:45:09.163Z,66.55
2019-02-14T19:47:40.818Z,66.57
2019-02-14T19:50:14.302Z,66.57
2019-02-14T19:52:45.841Z,66.59
2019-02-14T19:55:17.495Z,66.64
2019-02-14T19:57:49.262Z,66.44
2019-02-14T20:00:21.113Z,66.26
2019-02-14T20:02:52.702Z,66.31
2019-02-14T20:05:24.358Z,66.44
2019-02-14T20:07:56.142Z,66.30
2019-02-14T20:10:27.938Z,66.12
2019-02-14T20:12:59.628Z,66.21
2019-02-14T20:15:37.145Z,66.32
2019-02-14T20:18:04.733Z,66.18
2019-02-14T20:20:36.283Z,65.92
2019-02-14T20:23:07.878Z,66.22
2019-02-14T20:25:39.488Z,66.34
2019-02-14T20:28:11.218Z,66.56
2019-02-14T20:30:42.825Z,66.30
2019-02-14T20:33:14.478Z,66.29
2019-02-14T20:35:46.093Z,66.13
2019-02-14T20:38:18.848Z,66.06
2019-02-14T20:40:50.457Z,66.03
2019-02-14T20:43:22.058Z,66.34
2019-02-14T20:45:53.576Z,66.33
2019-02-14T20:48:25.189Z,66.00
2019-02-14T20:50:56.819Z,65.88
2019-02-14T20:53:30.066Z,65.59
2019-02-14T20:56:01.857Z,65.49
2019-02-14T20:58:33.570Z,65.62
2019-02-14T21:01:06.755Z,65.89
2019-02-14T21:03:38.359Z,65.85
2019-02-14T21:06:09.976Z,65.74
2019-02-14T21:08:41.494Z,65.86
2019-02-14T21:11:13.096Z,65.60
2019-02-14T21:13:44.639Z,65.74
2019-02-14T21:16:16.227Z,66.36
2019-02-14T21:18:49.654Z,66.43
2019-02-14T21:21:21.109Z,66.68
2019-02-14T21:23:52.746Z,66.37
2019-02-14T21:26:24.263Z,66.66
2019-02-14T21:28:55.897Z,66.90
2019-02-14T21:31:27.457Z,66.49
2019-02-14T21:33:59.280Z,66.89
2019-02-14T21:36:30.974Z,66.75
2019-02-14T21:39:04.167Z,66.24
2019-02-14T21:41:37.372Z,65.95
2019-02-14T21:44:08.878Z,66.36
2019-02-14T21:46:40.562Z,66.14
2019-02-14T21:49:12.171Z,66.11
2019-02-14T21:51:43.723Z,66.65
2019-02-14T21:54:17.337Z,66.56
2019-02-14T21:56:48.690Z,66.37
2019-02-14T21:59:20.351Z,66.50
2019-02-14T22:01:52.164Z,66.33
2019-02-14T22:04:23.817Z,66.49
2019-02-14T22:06:55.385Z,66.63
2019-02-14T22:09:26.985Z,66.30
2019-02-14T22:11:58.727Z,65.95
2019-02-14T22:14:30.792Z,65.57
2019-02-14T22:17:02.362Z,65.40
2019-02-14T22:19:34.045Z,65.27
2019-02-14T22:22:05.630Z,65.18
2019-02-14T22:24:37.158Z,65.40
2019-02-14T22:27:08.753Z,65.29
2019-02-14T22:29:40.389Z,65.07
2019-02-14T22:32:12.293Z,64.83
2019-02-14T22:34:44.004Z,64.61
2019-02-14T22:37:15.705Z,64.60
2019-02-14T22:39:47.239Z,64.51
2019-02-14T22:42:18.752Z,64.56
2019-02-14T22:44:50.346Z,64.51
2019-02-14T22:47:21.968Z,64.41
2019-02-14T22:49:53.524Z,64.28
2019-02-14T22:52:25.125Z,64.22
2019-02-14T22:54:56.665Z,64.00
2019-02-14T22:57:28.200Z,63.96
2019-02-14T22:59:59.799Z,64.05
2019-02-14T23:02:31.402Z,64.24
2019-02-14T23:05:02.987Z,64.20
2019-02-14T23:07:35.814Z,64.29
2019-02-14T23:10:07.309Z,64.38
2019-02-14T23:12:39.188Z,64.31
2019-02-14T23:15:10.848Z,64.54
2019-02-14T23:17:42.731Z,64.48
2019-02-14T23:20:14.252Z,64.31
2019-02-14T23:22:45.854Z,64.26
2019-02-14T23:25:17.884Z,64.23
2019-02-14T23:27:49.611Z,64.28
2019-02-14T23:30:21.219Z,64.08
2019-02-14T23:32:52.827Z,64.06
2019-02-14T23:35:24.613Z,63.81
2019-02-14T23:37:56.174Z,63.85
2019-02-14T23:40:28.233Z,63.89
2019-02-14T23:43:04.668Z,63.79
2019-02-14T23:45:33.057Z,63.92
2019-02-14T23:48:04.669Z,64.03
2019-02-14T23:50:36.415Z,64.04
2019-02-14T23:53:07.936Z,64.02
2019-02-14T23:55:41.675Z,64.01
2019-02-14T23:58:13.276Z,64.13
